Bookmark and Share
Track history (hours):
 

Sea Cloud II

Ship's website: http://www.seacloud.com/en/the-ships/sea-cloud-ii.html

Last reported at 2014-Apr-23 19:10 UTC. Time now 2014-Apr-25 05:46 UTC.
Position N 32°38' W 016°46'.

Length 117 m; draft 5.6 m.

Type: Passenger vessel. MMSI: 248953000.

NotesDate/timePositionNaut miles runAvg speedWind from/ knotsBaromVisibWave heightAir tempDewpointWater temp
2014-Apr-23 19:10N 32°38' W 016°46'4 6.8
2014-Apr-23 18:34N 32°37' W 016°51'3 3.1
2014-Apr-23 17:31N 32°39' W 016°55'0 0.0
2014-Apr-23 16:28N 32°39' W 016°55'0 0.0
2014-Apr-23 15:31N 32°39' W 016°55'0 0.0
2014-Apr-23 14:31N 32°39' W 016°55'0 0.0
2014-Apr-23 13:31N 32°39' W 016°55'0 0.0
2014-Apr-23 12:31N 32°39' W 016°55'0 0.0
2014-Apr-23 11:31N 32°39' W 016°55'0 0.0
2014-Apr-23 10:31N 32°39' W 016°55'0 0.0
2014-Apr-23 09:31N 32°39' W 016°55'0 0.0
2014-Apr-23 08:31N 32°39' W 016°55'0 0.0
2014-Apr-23 07:31N 32°39' W 016°55'0 0.0
2014-Apr-23 06:28N 32°39' W 016°55'0 0.0
2014-Apr-23 05:28N 32°39' W 016°55'0 0.0
2014-Apr-23 04:31N 32°39' W 016°55'0 0.0
2014-Apr-23 03:31N 32°39' W 016°55'0 0.0
2014-Apr-23 02:31N 32°39' W 016°55'0 0.0
2014-Apr-23 01:31N 32°39' W 016°55'0 0.0
2014-Apr-23 00:31N 32°39' W 016°55'0 0.0
2014-Apr-22 23:31N 32°39' W 016°55'0 0.0
2014-Apr-22 22:31N 32°39' W 016°55'0 0.0
2014-Apr-22 21:31N 32°39' W 016°55'0 0.0
2014-Apr-22 20:31N 32°39' W 016°55'0 0.0
2014-Apr-22 19:32N 32°39' W 016°55'2 2.4
2014-Apr-22 18:33N 32°38' W 016°52'1 1.3
2014-Apr-22 17:33N 32°36' W 016°53'4 4.2
2014-Apr-22 16:33N 32°36' W 016°58'7 6.9
2014-Apr-22 15:33N 32°39' W 017°06'413 9.3
2014-Apr-20 19:19N 36°21' W 024°08'811.0
2014-Apr-20 18:33N 36°26' W 024°16'1211.7
2014-Apr-20 17:33N 36°33' W 024°28'8 8.5
2014-Apr-20 16:33N 36°39' W 024°36'7 7.0
2014-Apr-20 15:33N 36°42' W 024°44'7 7.4
2014-Apr-20 14:33N 36°44' W 024°53'8 8.0
2014-Apr-20 13:33N 36°47' W 025°02'7 7.4
2014-Apr-20 12:33N 36°50' W 025°11'6 6.3
2014-Apr-20 11:33N 36°53' W 025°17'6 6.4
2014-Apr-20 10:33N 36°60' W 025°19'6 6.2
2014-Apr-20 09:33N 37°05' W 025°21'6 6.3
2014-Apr-20 08:33N 37°09' W 025°28'6 6.5
2014-Apr-20 07:33N 37°13' W 025°34'5 5.1
2014-Apr-20 06:34N 37°17' W 025°38'5 5.0
2014-Apr-20 05:33N 37°21' W 025°42'5 4.9
2014-Apr-20 04:34N 37°24' W 025°47'6 6.3
2014-Apr-20 03:33N 37°29' W 025°52'9 8.7
2014-Apr-20 02:33N 37°36' W 025°59'9 8.7
2014-Apr-20 01:33N 37°42' W 026°07'9 8.6
2014-Apr-20 00:33N 37°48' W 026°14'8 8.5
2014-Apr-19 23:34N 37°54' W 026°21'9 8.7
2014-Apr-19 22:33N 38°01' W 026°29'9 9.2
2014-Apr-19 21:33N 38°08' W 026°37'1111.5
2014-Apr-19 20:33N 38°16' W 026°47'1111.3
2014-Apr-19 19:34N 38°24' W 026°57'8 7.8
2014-Apr-19 18:33N 38°30' W 027°03'8 7.7
2014-Apr-19 17:29N 38°36' W 027°10'3 3.5
2014-Apr-19 16:32N 38°39' W 027°13'0 0.0
2014-Apr-19 15:32N 38°39' W 027°13'0 0.0
2014-Apr-19 14:32N 38°39' W 027°13'0 0.0
2014-Apr-19 13:29N 38°39' W 027°13'0 0.0
2014-Apr-19 12:32N 38°39' W 027°13'0 0.0
2014-Apr-19 11:32N 38°39' W 027°13'0 0.0
2014-Apr-19 10:32N 38°39' W 027°13'0 0.0
2014-Apr-19 09:32N 38°39' W 027°13'0 0.0
2014-Apr-19 08:29N 38°39' W 027°13'0 0.0
2014-Apr-19 07:33N 38°39' W 027°13'3 3.3
2014-Apr-19 06:33N 38°37' W 027°16'3 2.5
2014-Apr-19 05:33N 38°36' W 027°19'3 3.2
2014-Apr-19 04:34N 38°35' W 027°23'3 3.0
2014-Apr-19 03:33N 38°34' W 027°26'4 3.6
2014-Apr-19 02:33N 38°32' W 027°31'6 5.6
2014-Apr-19 01:33N 38°30' W 027°37'6 6.4
2014-Apr-19 00:33N 38°28' W 027°45'6 6.3
2014-Apr-18 23:33N 38°26' W 027°53'6 6.4
2014-Apr-18 22:33N 38°23' W 028°00'6 5.8
2014-Apr-18 21:33N 38°21' W 028°07'6 5.6
2014-Apr-18 20:33N 38°21' W 028°14'3 3.0
2014-Apr-18 19:31N 38°24' W 028°16'0 0.0
2014-Apr-18 18:31N 38°24' W 028°16'0 0.0
2014-Apr-18 17:31N 38°24' W 028°16'0 0.0
2014-Apr-18 16:31N 38°24' W 028°16'0 0.0
2014-Apr-18 15:31N 38°24' W 028°16'4 3.7
2014-Apr-18 14:33N 38°24' W 028°20'1110.9
2014-Apr-18 13:33N 38°27' W 028°33'6 5.8
2014-Apr-18 12:33N 38°32' W 028°37'0 0.0
2014-Apr-18 11:33N 38°32' W 028°37'0 0.0
2014-Apr-18 10:34N 38°32' W 028°37'0 0.0
2014-Apr-18 09:33N 38°32' W 028°37'0 0.0
2014-Apr-18 08:31N 38°32' W 028°37'0 0.0
2014-Apr-18 07:33N 38°32' W 028°37'0 0.0
2014-Apr-18 06:33N 38°32' W 028°37'0 0.0
2014-Apr-18 05:33N 38°32' W 028°37'0 0.0
2014-Apr-18 04:33N 38°32' W 028°37'0 0.0
2014-Apr-18 03:24N 38°32' W 028°37'0 0.0
2014-Apr-18 02:25N 38°32' W 028°37'0 0.0
2014-Apr-18 01:33N 38°32' W 028°37'0 0.0
2014-Apr-18 00:33N 38°32' W 028°37'0 0.0
2014-Apr-17 23:31N 38°32' W 028°37'0 0.0
2014-Apr-17 22:33N 38°32' W 028°37'3 2.7
2014-Apr-17 21:33N 38°30' W 028°36'6 5.9
2014-Apr-17 20:34N 38°25' W 028°32'7 6.8
2014-Apr-17 19:34N 38°23' W 028°24'7 7.0
2014-Apr-17 18:34N 38°20' W 028°16'1210.7
2014-Apr-17 17:29N 38°16' W 028°02'6 6.5
2014-Apr-17 16:34N 38°12' W 027°56'1 1.4
2014-Apr-17 15:34N 38°11' W 027°57'1 0.5
2014-Apr-17 14:33N 38°11' W 027°58'1 0.7
2014-Apr-17 13:33N 38°11' W 027°59'1 1.4
2014-Apr-17 12:34N 38°12' W 028°00'0 0.2
2014-Apr-17 11:34N 38°12' W 028°00'3 3.1
2014-Apr-17 10:34N 38°13' W 027°57'4 4.3
2014-Apr-17 09:33N 38°14' W 027°52'5 5.0
2014-Apr-17 08:33N 38°14' W 027°45'1010.0
2014-Apr-17 07:34N 38°10' W 027°33'7 7.5
2014-Apr-17 06:34N 38°08' W 027°24'10 9.6
2014-Apr-17 05:33N 38°06' W 027°12'10 9.8
2014-Apr-17 04:34N 38°02' W 027°01'1010.4
2014-Apr-17 03:33N 37°59' W 026°48'1010.4
2014-Apr-17 02:33N 37°56' W 026°36'1010.3
2014-Apr-17 01:34N 37°53' W 026°23'1110.5
2014-Apr-17 00:34N 37°50' W 026°10'1110.8
2014-Apr-16 23:34N 37°46' W 025°57'1110.8
2014-Apr-16 22:34N 37°43' W 025°44'4 3.7
2014-Apr-16 21:32N 37°44' W 025°40'0 0.0
2014-Apr-16 20:32N 37°44' W 025°40'0 0.0
2014-Apr-16 19:32N 37°44' W 025°40'0 0.0
2014-Apr-16 18:32N 37°44' W 025°40'0 0.1
2014-Apr-16 17:34N 37°44' W 025°40'6 5.5
2014-Apr-16 16:33N 37°40' W 025°44'1211.5
2014-Apr-16 15:33N 37°33' W 025°55'1313.0
2014-Apr-16 14:33N 37°25' W 026°08'1312.6
2014-Apr-16 13:33N 37°17' W 026°21'1212.5
2014-Apr-16 12:33N 37°09' W 026°33'1212.2
2014-Apr-16 11:33N 37°01' W 026°45'1212.0
2014-Apr-16 10:33N 36°54' W 026°56'  

Dump ship's entire track history

sailing weather and tide predictions

Sea Cloud II — 9HUE6 — position and weather